WAPP/AMQ METAR and TAF weather

Enter ICAO airport designator
Station Type Date Time Source
WAPP METAR 2020/07/09 01:00 UTC NOAA

WAPP 090100Z 05004KT 020V100 9000 -RA BKN015 24/23 Q1010 NOSIG


Station Type Date Time Source
WAPP Decoded METAR 2020/07/09 01:00 UTC NOAA

Ambon / Pattimura, Indonesia (WAPP) 03-42S 128-05E 12M
Jul 08, 2020 - 09:00 PM EDT / 2020.07.09 0100 UTC
Wind: from the NE (050 degrees) at 5 MPH (4 KT) (direction variable):0
Visibility: 5 mile(s):0
Sky conditions: mostly cloudy
Weather: light rain
Temperature: 75 F (24 C)
Dew Point: 73 F (23 C)
Relative Humidity: 94%
Pressure (altimeter): 29.83 in. Hg (1010 hPa)
ob: WAPP 090100Z 05004KT 020V100 9000 -RA BKN015 24/23 Q1010 NOSIG
cycle: 1

Station Type Date Time Source
WAPP TAF 2015/06/30 00:57 UTC NOAA

TAF WAPP 302300Z 0100/0124 34006KT 9999 SCT018
TEMPO 0101/0104 7000 -RA BKN017
BECMG 0105/0107 21006KT
BECMG 0109/0111 32006KT

Example: see airport list